createdAt,value
2022-09-09T00:00:50.504Z,13.99
2022-09-09T00:03:54.190Z,13.82
2022-09-09T00:06:57.284Z,14.01
2022-09-09T00:09:50.188Z,13.80
2022-09-09T00:12:58.433Z,13.85
2022-09-09T00:15:58.969Z,13.97
2022-09-09T00:19:07.499Z,13.93
2022-09-09T00:22:23.946Z,13.95
2022-09-09T00:25:17.826Z,13.93
2022-09-09T00:28:15.252Z,13.97
2022-09-09T00:31:12.821Z,13.81
2022-09-09T00:34:05.923Z,14.05
2022-09-09T00:36:53.852Z,13.85
2022-09-09T00:39:45.861Z,14.11
2022-09-09T00:42:44.064Z,14.14
2022-09-09T00:46:07.325Z,14.19
2022-09-09T00:49:12.087Z,14.17
2022-09-09T00:52:25.991Z,14.17
2022-09-09T00:55:16.498Z,13.99
2022-09-09T00:58:03.009Z,14.06
2022-09-09T01:01:00.045Z,13.99
2022-09-09T01:03:54.888Z,14.13
2022-09-09T01:06:41.681Z,14.06
2022-09-09T01:09:58.619Z,14.15
2022-09-09T01:12:48.306Z,14.14
2022-09-09T01:15:39.982Z,13.92
2022-09-09T01:18:32.391Z,14.09
2022-09-09T01:21:46.582Z,14.14
2022-09-09T01:25:14.177Z,14.14
2022-09-09T01:28:19.013Z,14.11
2022-09-09T01:31:07.936Z,14.07
2022-09-09T01:34:01.473Z,14.08
2022-09-09T01:37:08.772Z,13.88
2022-09-09T01:39:55.468Z,13.88
2022-09-09T01:42:42.040Z,13.95
2022-09-09T01:45:29.745Z,14.12
2022-09-09T01:48:17.371Z,13.99
2022-09-09T01:51:10.097Z,14.16
2022-09-09T01:53:56.477Z,14.18
2022-09-09T01:56:52.415Z,14.21
2022-09-09T01:59:56.893Z,14.28
2022-09-09T02:03:04.265Z,14.20
2022-09-09T02:06:23.806Z,14.36
2022-09-09T02:09:15.113Z,13.92
2022-09-09T02:12:14.482Z,13.92
2022-09-09T02:15:17.310Z,13.89
2022-09-09T02:18:11.024Z,14.14
2022-09-09T02:21:00.162Z,13.87
2022-09-09T02:23:50.350Z,13.48
2022-09-09T02:26:41.474Z,13.51
2022-09-09T02:29:35.160Z,13.62
2022-09-09T02:32:25.038Z,13.63
2022-09-09T02:35:21.138Z,13.71
2022-09-09T02:38:13.292Z,13.57
2022-09-09T02:41:03.281Z,13.43
2022-09-09T02:43:49.858Z,13.51
2022-09-09T02:46:36.299Z,13.68
2022-09-09T02:49:36.925Z,13.42
2022-09-09T02:52:38.245Z,13.62
2022-09-09T02:55:37.497Z,13.64
2022-09-09T02:58:24.315Z,13.61
2022-09-09T03:01:19.051Z,13.61
2022-09-09T03:04:06.334Z,13.77
2022-09-09T03:06:52.718Z,13.69
2022-09-09T03:09:40.739Z,13.47
2022-09-09T03:12:27.437Z,13.59
2022-09-09T03:15:15.598Z,13.62
2022-09-09T03:18:02.216Z,13.16
2022-09-09T03:20:49.526Z,13.57
2022-09-09T03:23:37.430Z,13.41
2022-09-09T03:26:24.545Z,12.95
2022-09-09T03:29:11.137Z,13.40
2022-09-09T03:31:57.702Z,13.38
2022-09-09T03:34:44.608Z,13.45
2022-09-09T03:37:33.434Z,13.32
2022-09-09T03:40:21.076Z,13.21
2022-09-09T03:43:07.858Z,13.40
2022-09-09T03:45:57.955Z,13.11
2022-09-09T03:48:46.089Z,13.15
2022-09-09T03:51:37.666Z,13.06
2022-09-09T03:54:26.104Z,12.93
2022-09-09T03:57:13.350Z,13.03
2022-09-09T04:00:01.983Z,13.03
2022-09-09T04:02:54.953Z,13.04
2022-09-09T04:05:43.179Z,13.01
2022-09-09T04:08:32.314Z,13.04
2022-09-09T04:11:19.928Z,13.02
2022-09-09T04:14:09.844Z,12.98
2022-09-09T04:16:57.076Z,13.18
2022-09-09T04:19:43.799Z,12.86
2022-09-09T04:22:30.610Z,13.07
2022-09-09T04:25:16.962Z,13.35
2022-09-09T04:28:03.790Z,13.07
2022-09-09T04:30:51.528Z,13.31
2022-09-09T04:33:40.488Z,13.51
2022-09-09T04:36:28.030Z,13.45
2022-09-09T04:39:18.706Z,13.50
2022-09-09T04:42:05.270Z,13.87
2022-09-09T04:44:51.809Z,13.69
2022-09-09T04:47:38.152Z,13.64
2022-09-09T04:50:24.498Z,13.70
2022-09-09T04:53:18.620Z,13.85
2022-09-09T04:56:07.812Z,13.87
2022-09-09T04:58:58.568Z,13.76
2022-09-09T05:01:56.168Z,13.62
2022-09-09T05:04:42.737Z,13.77
2022-09-09T05:07:29.962Z,14.05
2022-09-09T05:10:18.460Z,14.04
2022-09-09T05:13:07.547Z,14.05
2022-09-09T05:15:55.249Z,14.20
2022-09-09T05:18:47.006Z,14.12
2022-09-09T05:21:33.481Z,14.15
2022-09-09T05:24:20.323Z,14.15
2022-09-09T05:27:13.011Z,14.22
2022-09-09T05:30:00.033Z,14.26
2022-09-09T05:32:47.458Z,14.34
2022-09-09T05:35:34.462Z,14.39
2022-09-09T05:38:20.878Z,14.46
2022-09-09T05:41:09.118Z,14.63
2022-09-09T05:43:55.326Z,14.54
2022-09-09T05:46:42.341Z,14.45
2022-09-09T05:49:28.971Z,14.55
2022-09-09T05:52:15.669Z,14.66
2022-09-09T05:55:01.980Z,14.91
2022-09-09T05:57:50.491Z,14.93
2022-09-09T06:00:36.840Z,15.04
2022-09-09T06:03:24.570Z,15.06
2022-09-09T06:06:13.982Z,15.28
2022-09-09T06:09:00.958Z,15.22
2022-09-09T06:11:55.165Z,15.22
2022-09-09T06:14:46.295Z,15.39
2022-09-09T06:17:34.139Z,15.11
2022-09-09T06:20:21.026Z,15.58
2022-09-09T06:23:07.570Z,15.51
2022-09-09T06:26:11.978Z,15.78
2022-09-09T06:29:00.390Z,15.73
2022-09-09T06:31:48.571Z,15.49
2022-09-09T06:34:42.733Z,15.55
2022-09-09T06:37:30.353Z,15.50
2022-09-09T06:40:17.105Z,15.33
2022-09-09T06:43:03.767Z,15.50
2022-09-09T06:46:07.306Z,15.76
2022-09-09T06:48:56.146Z,15.89
2022-09-09T06:51:44.041Z,16.23
2022-09-09T06:54:32.533Z,16.45
2022-09-09T06:57:36.454Z,16.65
2022-09-09T07:00:25.002Z,16.76
2022-09-09T07:03:11.929Z,16.81
2022-09-09T07:06:00.354Z,17.10
2022-09-09T07:08:57.075Z,16.92
2022-09-09T07:11:49.501Z,17.26
2022-09-09T07:14:38.508Z,17.33
2022-09-09T07:17:29.197Z,17.61
2022-09-09T07:20:16.026Z,17.51
2022-09-09T07:23:02.866Z,17.45
2022-09-09T07:25:49.219Z,17.55
2022-09-09T07:28:37.344Z,17.56
2022-09-09T07:31:31.756Z,17.80
2022-09-09T07:34:20.332Z,17.82
2022-09-09T07:37:06.507Z,18.02
2022-09-09T07:39:53.940Z,18.14
2022-09-09T07:42:40.440Z,18.21
2022-09-09T07:45:29.241Z,18.29
2022-09-09T07:48:16.307Z,18.12
2022-09-09T07:51:12.625Z,18.14
2022-09-09T07:54:05.754Z,18.29
2022-09-09T07:56:53.420Z,18.00
2022-09-09T07:59:42.929Z,17.97
2022-09-09T08:02:30.342Z,18.02
2022-09-09T08:05:17.570Z,17.86
2022-09-09T08:08:05.317Z,18.06
2022-09-09T08:10:53.870Z,18.32
2022-09-09T08:13:41.623Z,18.48
2022-09-09T08:16:31.358Z,18.86
2022-09-09T08:19:18.854Z,18.96
2022-09-09T08:22:06.690Z,18.79
2022-09-09T08:24:54.842Z,19.12
2022-09-09T08:27:41.278Z,19.26
2022-09-09T08:30:27.761Z,19.46
2022-09-09T08:33:14.808Z,19.63
2022-09-09T08:36:01.323Z,19.74
2022-09-09T08:38:52.429Z,19.75
2022-09-09T08:42:03.365Z,20.07
2022-09-09T08:44:57.086Z,20.19
2022-09-09T08:48:08.833Z,20.14
2022-09-09T08:51:02.731Z,20.17
2022-09-09T08:53:53.641Z,20.05
2022-09-09T08:56:43.610Z,20.05
2022-09-09T08:59:29.740Z,20.31
2022-09-09T09:02:22.090Z,20.50
2022-09-09T09:05:32.689Z,20.73
2022-09-09T09:08:25.471Z,21.15
2022-09-09T09:11:12.371Z,21.20
2022-09-09T09:14:09.005Z,21.62
2022-09-09T09:17:13.830Z,22.01
2022-09-09T09:20:00.651Z,21.97
2022-09-09T09:22:52.941Z,22.09
2022-09-09T09:25:44.346Z,22.27
2022-09-09T09:28:34.131Z,22.72
2022-09-09T09:31:27.891Z,22.89
2022-09-09T09:34:15.117Z,23.02
2022-09-09T09:37:06.304Z,23.07
2022-09-09T09:40:08.792Z,23.22
2022-09-09T09:43:00.319Z,23.24
2022-09-09T09:46:06.800Z,23.12
2022-09-09T09:49:09.717Z,22.67
2022-09-09T09:52:03.123Z,22.02
2022-09-09T09:54:51.821Z,21.69
2022-09-09T09:57:39.082Z,21.07
2022-09-09T10:00:29.427Z,20.72
2022-09-09T10:03:27.214Z,19.33
2022-09-09T10:06:14.860Z,18.70
2022-09-09T10:09:03.824Z,18.12
2022-09-09T10:12:12.433Z,17.98
2022-09-09T10:15:25.898Z,18.02
2022-09-09T10:18:36.695Z,18.50
2022-09-09T10:21:50.027Z,18.59
2022-09-09T10:25:07.276Z,18.92
2022-09-09T10:28:16.331Z,18.99
2022-09-09T10:31:12.112Z,19.26
2022-09-09T10:34:29.821Z,19.41
2022-09-09T10:37:36.345Z,19.23
2022-09-09T10:40:39.219Z,19.16
2022-09-09T10:43:35.306Z,19.31
2022-09-09T10:46:45.979Z,19.46
2022-09-09T10:49:50.918Z,19.50
2022-09-09T10:52:42.180Z,19.64
2022-09-09T10:55:43.499Z,19.74
2022-09-09T10:58:37.009Z,19.63
2022-09-09T11:01:28.200Z,19.57
2022-09-09T11:04:35.082Z,19.31
2022-09-09T11:07:36.919Z,19.51
2022-09-09T11:10:35.735Z,19.40
2022-09-09T11:13:35.171Z,19.06
2022-09-09T11:16:46.920Z,18.63
2022-09-09T11:19:44.518Z,18.15
2022-09-09T11:22:39.689Z,17.51
2022-09-09T11:25:44.121Z,17.43
2022-09-09T11:28:39.840Z,17.37
2022-09-09T11:31:47.779Z,17.25
2022-09-09T11:34:34.438Z,17.25
2022-09-09T11:37:53.138Z,17.34
2022-09-09T11:40:40.580Z,17.02
2022-09-09T11:43:33.976Z,17.14
2022-09-09T11:46:23.917Z,17.16
2022-09-09T11:49:32.383Z,17.09
2022-09-09T11:52:23.181Z,17.39
2022-09-09T11:55:28.287Z,17.58
2022-09-09T11:58:14.606Z,17.89
2022-09-09T12:01:01.446Z,17.93
2022-09-09T12:03:52.449Z,18.47
2022-09-09T12:06:50.384Z,18.74
2022-09-09T12:09:52.928Z,18.76
2022-09-09T12:12:43.841Z,18.90
2022-09-09T12:15:30.752Z,19.24
2022-09-09T12:18:24.534Z,19.40
2022-09-09T12:21:41.840Z,19.68
2022-09-09T12:24:38.103Z,19.81
2022-09-09T12:27:35.408Z,20.12
2022-09-09T12:30:24.102Z,20.05
2022-09-09T12:33:17.791Z,20.38
2022-09-09T12:36:09.065Z,20.36
2022-09-09T12:39:00.673Z,20.40
2022-09-09T12:41:57.575Z,20.50
2022-09-09T12:45:04.711Z,20.56
2022-09-09T12:48:01.587Z,20.39
2022-09-09T12:50:54.557Z,20.66
2022-09-09T12:53:40.830Z,20.86
2022-09-09T12:56:30.090Z,21.27
2022-09-09T12:59:25.961Z,21.32
2022-09-09T13:02:28.891Z,21.33
2022-09-09T13:05:21.775Z,21.60
2022-09-09T13:08:11.543Z,21.49
2022-09-09T13:11:04.049Z,21.47
2022-09-09T13:13:53.984Z,21.62
2022-09-09T13:16:43.163Z,21.83
2022-09-09T13:19:46.353Z,22.09
2022-09-09T13:22:36.768Z,22.38
2022-09-09T13:25:29.709Z,22.38
2022-09-09T13:28:22.633Z,22.73
2022-09-09T13:31:21.234Z,22.88
2022-09-09T13:34:28.206Z,22.93
2022-09-09T13:37:43.766Z,23.27
2022-09-09T13:40:31.361Z,23.50
2022-09-09T13:43:23.595Z,23.59
2022-09-09T13:46:37.978Z,23.36
2022-09-09T13:49:24.688Z,23.69
2022-09-09T13:52:19.701Z,23.69
2022-09-09T13:55:07.687Z,23.95
2022-09-09T13:57:58.144Z,23.83
2022-09-09T14:00:45.646Z,23.32
2022-09-09T14:03:32.210Z,22.99
2022-09-09T14:06:19.824Z,23.20
2022-09-09T14:09:13.535Z,23.56
2022-09-09T14:12:00.647Z,23.70
2022-09-09T14:14:47.143Z,23.68
2022-09-09T14:17:34.757Z,23.54
2022-09-09T14:20:21.233Z,23.17
2022-09-09T14:23:11.900Z,22.93
2022-09-09T14:25:58.359Z,22.70
2022-09-09T14:28:54.786Z,22.50
2022-09-09T14:31:42.239Z,22.40
2022-09-09T14:34:28.781Z,22.40
2022-09-09T14:37:14.906Z,22.37
2022-09-09T14:40:01.723Z,22.07
2022-09-09T14:42:48.124Z,22.29
2022-09-09T14:45:38.134Z,22.32
2022-09-09T14:48:24.565Z,22.37
2022-09-09T14:51:13.758Z,22.24
2022-09-09T14:54:00.549Z,22.24
2022-09-09T14:56:48.459Z,22.05
2022-09-09T14:59:35.355Z,21.83
2022-09-09T15:02:21.751Z,21.74
2022-09-09T15:05:09.177Z,21.55
2022-09-09T15:07:55.617Z,21.54
2022-09-09T15:10:41.907Z,21.53
2022-09-09T15:13:28.242Z,21.42
2022-09-09T15:16:17.441Z,21.32
2022-09-09T15:19:04.062Z,21.45
2022-09-09T15:21:50.312Z,21.57
2022-09-09T15:24:36.622Z,21.43
2022-09-09T15:27:24.808Z,21.68
2022-09-09T15:30:11.974Z,21.78
2022-09-09T15:32:58.090Z,21.67
2022-09-09T15:35:44.571Z,21.64
2022-09-09T15:38:32.190Z,21.36
2022-09-09T15:41:20.839Z,20.87
2022-09-09T15:44:06.959Z,20.89
2022-09-09T15:46:56.570Z,20.82
2022-09-09T15:49:43.130Z,20.62
2022-09-09T15:52:29.282Z,20.37
2022-09-09T15:55:15.833Z,20.38
2022-09-09T15:58:02.418Z,20.33
2022-09-09T16:00:48.702Z,19.78
2022-09-09T16:03:45.261Z,19.44
2022-09-09T16:06:32.162Z,19.42
2022-09-09T16:09:19.477Z,19.23
2022-09-09T16:12:12.807Z,18.71
2022-09-09T16:15:00.538Z,18.21
2022-09-09T16:17:47.109Z,17.57
2022-09-09T16:20:33.249Z,17.09
2022-09-09T16:23:20.615Z,16.27
2022-09-09T16:26:07.281Z,16.11
2022-09-09T16:28:55.134Z,15.60
2022-09-09T16:31:42.149Z,15.48
2022-09-09T16:34:28.703Z,15.43
2022-09-09T16:37:14.950Z,15.23
2022-09-09T16:40:01.537Z,15.20
2022-09-09T16:42:47.874Z,15.05
2022-09-09T16:45:34.484Z,15.33
2022-09-09T16:48:21.327Z,15.55
2022-09-09T16:51:12.364Z,15.50
2022-09-09T16:54:01.173Z,15.74
2022-09-09T16:56:48.874Z,15.87
2022-09-09T16:59:35.140Z,15.83
2022-09-09T17:02:21.727Z,15.91
2022-09-09T17:05:08.337Z,16.06
2022-09-09T17:07:58.261Z,15.97
2022-09-09T17:10:44.846Z,15.99
2022-09-09T17:13:32.665Z,16.20
2022-09-09T17:16:22.584Z,15.96
2022-09-09T17:19:10.409Z,15.86
2022-09-09T17:22:16.043Z,15.74
2022-09-09T17:25:04.234Z,15.53
2022-09-09T17:27:51.933Z,15.66
2022-09-09T17:30:38.229Z,15.40
2022-09-09T17:33:24.599Z,15.30
2022-09-09T17:36:19.866Z,15.45
2022-09-09T17:39:06.901Z,15.40
2022-09-09T17:41:53.797Z,15.12
2022-09-09T17:44:40.878Z,15.16
2022-09-09T17:47:29.143Z,15.02
2022-09-09T17:50:15.650Z,14.98
2022-09-09T17:53:03.290Z,14.90
2022-09-09T17:55:52.989Z,14.87
2022-09-09T17:58:40.194Z,14.89
2022-09-09T18:01:29.324Z,15.00
2022-09-09T18:04:17.129Z,15.01
2022-09-09T18:07:03.626Z,14.96
2022-09-09T18:09:50.311Z,14.78
2022-09-09T18:12:36.702Z,14.75
2022-09-09T18:15:39.111Z,14.98
2022-09-09T18:18:30.082Z,14.91
2022-09-09T18:21:18.773Z,14.85
2022-09-09T18:24:07.400Z,14.73
2022-09-09T18:26:55.126Z,14.45
2022-09-09T18:29:41.882Z,14.52
2022-09-09T18:32:30.389Z,14.61
2022-09-09T18:35:16.637Z,14.48
2022-09-09T18:38:03.704Z,14.29
2022-09-09T18:40:50.570Z,14.22
2022-09-09T18:43:37.091Z,14.39
2022-09-09T18:46:25.323Z,14.42
2022-09-09T18:49:12.541Z,14.27
2022-09-09T18:51:59.159Z,14.08
2022-09-09T18:54:46.061Z,14.19
2022-09-09T18:57:36.249Z,14.02
2022-09-09T19:00:22.724Z,14.01
2022-09-09T19:03:09.308Z,14.06
2022-09-09T19:06:09.437Z,13.97
2022-09-09T19:09:02.881Z,13.79
2022-09-09T19:11:49.945Z,13.68
2022-09-09T19:14:36.207Z,13.84
2022-09-09T19:17:24.803Z,13.81
2022-09-09T19:20:11.040Z,13.73
2022-09-09T19:22:57.428Z,13.61
2022-09-09T19:25:43.546Z,13.61
2022-09-09T19:28:30.033Z,13.39
2022-09-09T19:31:18.852Z,13.73
2022-09-09T19:34:05.086Z,13.51
2022-09-09T19:36:51.799Z,13.66
2022-09-09T19:39:38.064Z,13.83
2022-09-09T19:42:24.904Z,13.87
2022-09-09T19:45:11.174Z,13.89
2022-09-09T19:47:57.358Z,13.62
2022-09-09T19:50:44.342Z,13.79
2022-09-09T19:53:37.609Z,13.67
2022-09-09T19:56:26.542Z,13.59
2022-09-09T19:59:13.276Z,13.58
2022-09-09T20:01:59.592Z,13.26
2022-09-09T20:04:46.075Z,13.58
2022-09-09T20:07:33.342Z,13.52
2022-09-09T20:10:20.593Z,13.56
2022-09-09T20:13:07.182Z,13.27
2022-09-09T20:16:01.760Z,13.47
2022-09-09T20:18:52.440Z,13.40
2022-09-09T20:21:46.540Z,13.45
2022-09-09T20:24:33.882Z,13.24
2022-09-09T20:27:20.296Z,13.42
2022-09-09T20:30:07.418Z,13.35
2022-09-09T20:32:53.859Z,13.14
2022-09-09T20:35:41.290Z,13.21
2022-09-09T20:38:27.715Z,13.22
2022-09-09T20:41:18.509Z,13.46
2022-09-09T20:44:12.319Z,13.24
2022-09-09T20:47:06.439Z,13.44
2022-09-09T20:49:52.962Z,13.42
2022-09-09T20:52:39.190Z,13.40
2022-09-09T20:55:26.419Z,13.51
2022-09-09T20:58:12.811Z,13.40
2022-09-09T21:01:02.568Z,13.53
2022-09-09T21:03:49.482Z,13.29
2022-09-09T21:06:36.250Z,13.52
2022-09-09T21:09:24.396Z,13.24
2022-09-09T21:12:10.566Z,13.28
2022-09-09T21:14:57.120Z,13.20
2022-09-09T21:17:43.515Z,13.03
2022-09-09T21:20:29.675Z,13.09
2022-09-09T21:23:17.606Z,13.15
2022-09-09T21:26:05.161Z,13.11
2022-09-09T21:28:51.353Z,12.88
2022-09-09T21:31:38.154Z,12.81
2022-09-09T21:34:24.392Z,12.86
2022-09-09T21:37:11.698Z,12.70
2022-09-09T21:39:58.047Z,12.85
2022-09-09T21:42:44.452Z,12.85
2022-09-09T21:45:30.846Z,12.73
2022-09-09T21:48:18.624Z,12.97
2022-09-09T21:51:09.442Z,12.97
2022-09-09T21:53:56.536Z,12.85
2022-09-09T21:56:42.929Z,12.63
2022-09-09T21:59:29.231Z,12.68
2022-09-09T22:02:16.894Z,12.53
2022-09-09T22:05:03.668Z,12.69
2022-09-09T22:07:50.123Z,12.60
2022-09-09T22:10:38.721Z,12.72
2022-09-09T22:13:25.053Z,12.65
2022-09-09T22:16:14.171Z,12.66
2022-09-09T22:19:01.806Z,12.65
2022-09-09T22:21:48.074Z,12.85
2022-09-09T22:24:35.617Z,12.92
2022-09-09T22:27:21.954Z,12.90
2022-09-09T22:30:09.880Z,13.08
2022-09-09T22:32:57.704Z,13.23
2022-09-09T22:35:44.698Z,13.12
2022-09-09T22:38:35.181Z,13.21
2022-09-09T22:41:22.024Z,13.23
2022-09-09T22:44:10.059Z,13.14
2022-09-09T22:46:56.503Z,13.13
2022-09-09T22:49:42.845Z,13.12
2022-09-09T22:52:32.077Z,13.27
2022-09-09T22:55:18.305Z,12.87
2022-09-09T22:58:05.108Z,13.16
2022-09-09T23:00:52.143Z,13.27
2022-09-09T23:03:40.620Z,13.18
2022-09-09T23:06:29.133Z,13.09
2022-09-09T23:09:15.343Z,13.08
2022-09-09T23:12:02.145Z,13.16
2022-09-09T23:14:48.551Z,13.02
2022-09-09T23:17:34.824Z,13.10
2022-09-09T23:20:21.268Z,13.04
2022-09-09T23:23:07.738Z,13.00
2022-09-09T23:25:54.321Z,12.97
2022-09-09T23:28:43.696Z,13.27
2022-09-09T23:31:33.113Z,13.27
2022-09-09T23:34:19.403Z,13.29
2022-09-09T23:37:06.149Z,13.36
2022-09-09T23:39:52.223Z,13.15
2022-09-09T23:42:38.418Z,13.32
2022-09-09T23:45:24.641Z,13.13
2022-09-09T23:48:11.156Z,13.26
2022-09-09T23:50:59.051Z,13.25
2022-09-09T23:53:51.114Z,13.35
2022-09-09T23:56:40.437Z,13.41
2022-09-09T23:59:26.724Z,13.20
